sensor_id;sensor_type;location;lat;lon;timestamp;temperature;humidity
3752;DHT22;50827;47.014;7.652;2023-04-03T00:00:37;8.30;99.90
3752;DHT22;50827;47.014;7.652;2023-04-03T00:03:04;8.30;99.90
3752;DHT22;50827;47.014;7.652;2023-04-03T00:05:31;8.20;99.90
3752;DHT22;50827;47.014;7.652;2023-04-03T00:07:58;8.20;99.90
3752;DHT22;50827;47.014;7.652;2023-04-03T00:10:26;8.30;99.90
3752;DHT22;50827;47.014;7.652;2023-04-03T00:12:53;8.30;99.90
3752;DHT22;50827;47.014;7.652;2023-04-03T00:15:19;8.30;99.90
3752;DHT22;50827;47.014;7.652;2023-04-03T00:17:46;8.30;99.90
3752;DHT22;50827;47.014;7.652;2023-04-03T00:20:13;8.40;99.90
3752;DHT22;50827;47.014;7.652;2023-04-03T00:22:40;8.40;99.90
3752;DHT22;50827;47.014;7.652;2023-04-03T00:25:07;8.40;99.90
3752;DHT22;50827;47.014;7.652;2023-04-03T00:27:36;8.40;99.90
3752;DHT22;50827;47.014;7.652;2023-04-03T00:30:03;8.40;99.90
3752;DHT22;50827;47.014;7.652;2023-04-03T00:32:30;8.40;99.90
3752;DHT22;50827;47.014;7.652;2023-04-03T00:34:57;8.50;99.90
3752;DHT22;50827;47.014;7.652;2023-04-03T00:37:24;8.50;99.90
3752;DHT22;50827;47.014;7.652;2023-04-03T00:39:50;8.50;99.90
3752;DHT22;50827;47.014;7.652;2023-04-03T00:42:17;8.50;99.90
3752;DHT22;50827;47.014;7.652;2023-04-03T00:47:12;8.50;99.90
3752;DHT22;50827;47.014;7.652;2023-04-03T00:49:40;8.50;99.90
3752;DHT22;50827;47.014;7.652;2023-04-03T00:52:11;8.50;99.90
3752;DHT22;50827;47.014;7.652;2023-04-03T00:54:41;8.50;99.90
3752;DHT22;50827;47.014;7.652;2023-04-03T00:57:09;8.50;99.90
3752;DHT22;50827;47.014;7.652;2023-04-03T00:59:42;8.40;99.90
3752;DHT22;50827;47.014;7.652;2023-04-03T01:02:10;8.40;99.90
3752;DHT22;50827;47.014;7.652;2023-04-03T01:04:39;8.40;99.90
3752;DHT22;50827;47.014;7.652;2023-04-03T01:07:19;8.40;99.90
3752;DHT22;50827;47.014;7.652;2023-04-03T01:09:48;8.40;99.90
3752;DHT22;50827;47.014;7.652;2023-04-03T01:14:50;8.50;99.90
3752;DHT22;50827;47.014;7.652;2023-04-03T01:17:41;8.50;99.90
3752;DHT22;50827;47.014;7.652;2023-04-03T01:25:56;8.40;99.90
3752;DHT22;50827;47.014;7.652;2023-04-03T01:28:26;8.50;99.90
3752;DHT22;50827;47.014;7.652;2023-04-03T01:31:18;8.40;99.90
3752;DHT22;50827;47.014;7.652;2023-04-03T01:33:46;8.40;99.90
3752;DHT22;50827;47.014;7.652;2023-04-03T01:36:22;8.40;99.90
3752;DHT22;50827;47.014;7.652;2023-04-03T01:38:51;8.40;99.90
3752;DHT22;50827;47.014;7.652;2023-04-03T01:41:19;8.50;99.90
3752;DHT22;50827;47.014;7.652;2023-04-03T01:43:48;8.50;99.90
3752;DHT22;50827;47.014;7.652;2023-04-03T01:46:16;8.50;99.90
3752;DHT22;50827;47.014;7.652;2023-04-03T01:48:43;8.40;99.90
3752;DHT22;50827;47.014;7.652;2023-04-03T01:51:10;8.40;99.90
3752;DHT22;50827;47.014;7.652;2023-04-03T01:53:36;8.40;99.90
3752;DHT22;50827;47.014;7.652;2023-04-03T01:56:04;8.40;99.90
3752;DHT22;50827;47.014;7.652;2023-04-03T01:58:31;8.50;99.90
3752;DHT22;50827;47.014;7.652;2023-04-03T02:00:57;8.50;99.90
3752;DHT22;50827;47.014;7.652;2023-04-03T02:03:24;8.40;99.90
3752;DHT22;50827;47.014;7.652;2023-04-03T02:05:51;8.40;99.90
3752;DHT22;50827;47.014;7.652;2023-04-03T02:08:18;8.30;99.90
3752;DHT22;50827;47.014;7.652;2023-04-03T02:10:47;8.30;99.90
3752;DHT22;50827;47.014;7.652;2023-04-03T02:13:14;8.30;99.90
3752;DHT22;50827;47.014;7.652;2023-04-03T02:15:42;8.30;99.90
3752;DHT22;50827;47.014;7.652;2023-04-03T02:18:09;8.40;99.90
3752;DHT22;50827;47.014;7.652;2023-04-03T02:20:36;8.40;99.90
3752;DHT22;50827;47.014;7.652;2023-04-03T02:23:03;8.40;99.90
3752;DHT22;50827;47.014;7.652;2023-04-03T02:25:33;8.40;99.90
3752;DHT22;50827;47.014;7.652;2023-04-03T02:28:02;8.20;99.90
3752;DHT22;50827;47.014;7.652;2023-04-03T02:30:28;8.10;99.90
3752;DHT22;50827;47.014;7.652;2023-04-03T02:32:55;8.20;99.90
3752;DHT22;50827;47.014;7.652;2023-04-03T02:35:22;8.20;99.90
3752;DHT22;50827;47.014;7.652;2023-04-03T02:37:49;8.10;99.90
3752;DHT22;50827;47.014;7.652;2023-04-03T02:40:15;8.10;99.90
3752;DHT22;50827;47.014;7.652;2023-04-03T02:42:42;8.10;99.90
3752;DHT22;50827;47.014;7.652;2023-04-03T02:45:09;8.00;99.90
3752;DHT22;50827;47.014;7.652;2023-04-03T02:47:36;8.00;99.90
3752;DHT22;50827;47.014;7.652;2023-04-03T02:50:02;8.00;99.90
3752;DHT22;50827;47.014;7.652;2023-04-03T02:52:29;7.90;99.90
3752;DHT22;50827;47.014;7.652;2023-04-03T02:54:56;7.80;99.90
3752;DHT22;50827;47.014;7.652;2023-04-03T02:57:22;7.80;99.90
3752;DHT22;50827;47.014;7.652;2023-04-03T02:59:49;7.90;99.90
3752;DHT22;50827;47.014;7.652;2023-04-03T03:02:16;8.00;99.90
3752;DHT22;50827;47.014;7.652;2023-04-03T03:04:43;8.00;99.90
3752;DHT22;50827;47.014;7.652;2023-04-03T03:07:09;7.80;99.90
3752;DHT22;50827;47.014;7.652;2023-04-03T03:09:36;7.60;99.90
3752;DHT22;50827;47.014;7.652;2023-04-03T03:12:03;7.70;99.90
3752;DHT22;50827;47.014;7.652;2023-04-03T03:14:30;7.60;99.90
3752;DHT22;50827;47.014;7.652;2023-04-03T03:16:56;7.50;99.90
3752;DHT22;50827;47.014;7.652;2023-04-03T03:19:23;7.50;99.90
3752;DHT22;50827;47.014;7.652;2023-04-03T03:21:50;7.60;99.90
3752;DHT22;50827;47.014;7.652;2023-04-03T03:24:17;7.50;99.90
3752;DHT22;50827;47.014;7.652;2023-04-03T03:26:44;7.50;99.90
3752;DHT22;50827;47.014;7.652;2023-04-03T03:29:10;7.40;99.90
3752;DHT22;50827;47.014;7.652;2023-04-03T03:31:37;7.20;99.90
3752;DHT22;50827;47.014;7.652;2023-04-03T03:34:04;7.20;99.90
3752;DHT22;50827;47.014;7.652;2023-04-03T03:36:30;7.10;99.90
3752;DHT22;50827;47.014;7.652;2023-04-03T03:38:58;7.00;99.90
3752;DHT22;50827;47.014;7.652;2023-04-03T03:41:24;7.00;99.90
3752;DHT22;50827;47.014;7.652;2023-04-03T03:43:51;6.90;99.90
3752;DHT22;50827;47.014;7.652;2023-04-03T03:46:18;6.80;99.90
3752;DHT22;50827;47.014;7.652;2023-04-03T03:48:44;6.70;99.90
3752;DHT22;50827;47.014;7.652;2023-04-03T03:51:11;6.80;99.90
3752;DHT22;50827;47.014;7.652;2023-04-03T03:53:38;6.70;99.90
3752;DHT22;50827;47.014;7.652;2023-04-03T03:56:05;6.80;99.90
3752;DHT22;50827;47.014;7.652;2023-04-03T03:58:32;6.80;99.90
3752;DHT22;50827;47.014;7.652;2023-04-03T04:01:03;6.80;99.90
3752;DHT22;50827;47.014;7.652;2023-04-03T04:03:33;6.90;99.90
3752;DHT22;50827;47.014;7.652;2023-04-03T04:06:00;6.80;99.90
3752;DHT22;50827;47.014;7.652;2023-04-03T04:08:26;6.70;99.90
3752;DHT22;50827;47.014;7.652;2023-04-03T04:10:53;6.70;99.90
3752;DHT22;50827;47.014;7.652;2023-04-03T04:13:20;6.80;99.90
3752;DHT22;50827;47.014;7.652;2023-04-03T04:15:46;6.80;99.90
3752;DHT22;50827;47.014;7.652;2023-04-03T04:18:13;6.80;99.90
3752;DHT22;50827;47.014;7.652;2023-04-03T04:20:40;6.90;99.90
3752;DHT22;50827;47.014;7.652;2023-04-03T04:23:06;7.00;99.90
3752;DHT22;50827;47.014;7.652;2023-04-03T04:25:33;7.00;99.90
3752;DHT22;50827;47.014;7.652;2023-04-03T04:28:00;6.90;99.90
3752;DHT22;50827;47.014;7.652;2023-04-03T04:30:27;6.90;99.90
3752;DHT22;50827;47.014;7.652;2023-04-03T04:32:54;6.90;99.90
3752;DHT22;50827;47.014;7.652;2023-04-03T04:35:20;6.80;99.90
3752;DHT22;50827;47.014;7.652;2023-04-03T04:37:47;6.80;99.90
3752;DHT22;50827;47.014;7.652;2023-04-03T04:40:14;6.80;99.90
3752;DHT22;50827;47.014;7.652;2023-04-03T04:42:41;6.70;99.90
3752;DHT22;50827;47.014;7.652;2023-04-03T04:45:08;6.70;99.90
3752;DHT22;50827;47.014;7.652;2023-04-03T04:47:34;6.70;99.90
3752;DHT22;50827;47.014;7.652;2023-04-03T04:50:01;6.80;99.90
3752;DHT22;50827;47.014;7.652;2023-04-03T04:52:28;6.60;99.90
3752;DHT22;50827;47.014;7.652;2023-04-03T04:54:54;6.60;99.90
3752;DHT22;50827;47.014;7.652;2023-04-03T04:57:21;6.40;99.90
3752;DHT22;50827;47.014;7.652;2023-04-03T04:59:48;6.40;99.90
3752;DHT22;50827;47.014;7.652;2023-04-03T05:02:15;6.30;99.90
3752;DHT22;50827;47.014;7.652;2023-04-03T05:04:41;6.20;99.90
3752;DHT22;50827;47.014;7.652;2023-04-03T05:07:08;6.10;99.90
3752;DHT22;50827;47.014;7.652;2023-04-03T05:09:35;6.10;99.90
3752;DHT22;50827;47.014;7.652;2023-04-03T05:12:02;6.10;99.90
3752;DHT22;50827;47.014;7.652;2023-04-03T05:14:29;6.20;99.90
3752;DHT22;50827;47.014;7.652;2023-04-03T05:16:56;6.20;99.90
3752;DHT22;50827;47.014;7.652;2023-04-03T05:19:24;6.20;99.90
3752;DHT22;50827;47.014;7.652;2023-04-03T05:21:50;6.30;99.90
3752;DHT22;50827;47.014;7.652;2023-04-03T05:24:17;6.20;99.90
3752;DHT22;50827;47.014;7.652;2023-04-03T05:26:44;6.20;99.90
3752;DHT22;50827;47.014;7.652;2023-04-03T05:29:11;6.20;99.90
3752;DHT22;50827;47.014;7.652;2023-04-03T05:31:38;6.10;99.90
3752;DHT22;50827;47.014;7.652;2023-04-03T05:34:04;6.10;99.90
3752;DHT22;50827;47.014;7.652;2023-04-03T05:36:32;6.10;99.90
3752;DHT22;50827;47.014;7.652;2023-04-03T05:38:59;6.10;99.90
3752;DHT22;50827;47.014;7.652;2023-04-03T05:41:26;6.10;99.90
3752;DHT22;50827;47.014;7.652;2023-04-03T05:43:52;6.20;99.90
3752;DHT22;50827;47.014;7.652;2023-04-03T05:46:20;6.20;99.90
3752;DHT22;50827;47.014;7.652;2023-04-03T05:48:47;6.30;99.90
3752;DHT22;50827;47.014;7.652;2023-04-03T05:51:20;6.00;99.90
3752;DHT22;50827;47.014;7.652;2023-04-03T05:53:48;5.90;99.90
3752;DHT22;50827;47.014;7.652;2023-04-03T05:56:17;5.80;99.90
3752;DHT22;50827;47.014;7.652;2023-04-03T05:58:43;5.90;99.90
3752;DHT22;50827;47.014;7.652;2023-04-03T06:01:10;5.80;99.90
3752;DHT22;50827;47.014;7.652;2023-04-03T06:03:36;5.90;99.90
3752;DHT22;50827;47.014;7.652;2023-04-03T06:06:06;5.90;99.90
3752;DHT22;50827;47.014;7.652;2023-04-03T06:08:34;5.80;99.90
3752;DHT22;50827;47.014;7.652;2023-04-03T06:11:01;5.80;99.90
3752;DHT22;50827;47.014;7.652;2023-04-03T06:13:29;5.90;99.90
3752;DHT22;50827;47.014;7.652;2023-04-03T06:15:56;5.70;99.90
3752;DHT22;50827;47.014;7.652;2023-04-03T06:18:23;5.70;99.90
3752;DHT22;50827;47.014;7.652;2023-04-03T06:20:50;5.70;99.90
3752;DHT22;50827;47.014;7.652;2023-04-03T06:23:17;5.80;99.90
3752;DHT22;50827;47.014;7.652;2023-04-03T06:25:43;5.90;99.90
3752;DHT22;50827;47.014;7.652;2023-04-03T06:28:10;5.90;99.90
3752;DHT22;50827;47.014;7.652;2023-04-03T06:30:37;5.80;99.90
3752;DHT22;50827;47.014;7.652;2023-04-03T06:33:05;5.70;99.90
3752;DHT22;50827;47.014;7.652;2023-04-03T06:35:31;5.70;99.90
3752;DHT22;50827;47.014;7.652;2023-04-03T06:38:01;5.70;99.90
3752;DHT22;50827;47.014;7.652;2023-04-03T06:40:30;5.60;99.90
3752;DHT22;50827;47.014;7.652;2023-04-03T06:42:57;5.80;99.90
3752;DHT22;50827;47.014;7.652;2023-04-03T06:45:24;5.80;99.90
3752;DHT22;50827;47.014;7.652;2023-04-03T06:47:52;5.70;99.90
3752;DHT22;50827;47.014;7.652;2023-04-03T06:50:18;5.50;99.90
3752;DHT22;50827;47.014;7.652;2023-04-03T06:52:45;5.60;99.90
3752;DHT22;50827;47.014;7.652;2023-04-03T06:55:12;5.60;99.90
3752;DHT22;50827;47.014;7.652;2023-04-03T06:57:39;5.60;99.90
3752;DHT22;50827;47.014;7.652;2023-04-03T07:00:06;5.70;99.90
3752;DHT22;50827;47.014;7.652;2023-04-03T07:02:33;5.70;99.90
3752;DHT22;50827;47.014;7.652;2023-04-03T07:05:00;5.70;99.90
3752;DHT22;50827;47.014;7.652;2023-04-03T07:07:27;5.80;99.90
3752;DHT22;50827;47.014;7.652;2023-04-03T07:09:53;5.70;99.90
3752;DHT22;50827;47.014;7.652;2023-04-03T07:12:20;5.70;99.90
3752;DHT22;50827;47.014;7.652;2023-04-03T07:14:47;5.70;99.90
3752;DHT22;50827;47.014;7.652;2023-04-03T07:17:13;5.80;99.90
3752;DHT22;50827;47.014;7.652;2023-04-03T07:19:40;5.80;99.90
3752;DHT22;50827;47.014;7.652;2023-04-03T07:22:07;5.70;99.90
3752;DHT22;50827;47.014;7.652;2023-04-03T07:24:34;5.60;99.90
3752;DHT22;50827;47.014;7.652;2023-04-03T07:27:01;5.70;99.90
3752;DHT22;50827;47.014;7.652;2023-04-03T07:29:28;5.60;99.90
3752;DHT22;50827;47.014;7.652;2023-04-03T07:31:56;5.60;99.90
3752;DHT22;50827;47.014;7.652;2023-04-03T07:34:23;5.60;99.90
3752;DHT22;50827;47.014;7.652;2023-04-03T07:36:49;5.50;99.90
3752;DHT22;50827;47.014;7.652;2023-04-03T07:39:16;5.50;99.90
3752;DHT22;50827;47.014;7.652;2023-04-03T07:41:43;5.40;99.90
3752;DHT22;50827;47.014;7.652;2023-04-03T07:44:09;5.40;99.90
3752;DHT22;50827;47.014;7.652;2023-04-03T07:46:37;5.40;99.90
3752;DHT22;50827;47.014;7.652;2023-04-03T07:49:04;5.50;99.90
3752;DHT22;50827;47.014;7.652;2023-04-03T07:51:31;5.60;99.90
3752;DHT22;50827;47.014;7.652;2023-04-03T07:53:57;5.70;99.90
3752;DHT22;50827;47.014;7.652;2023-04-03T07:56:24;5.60;99.90
3752;DHT22;50827;47.014;7.652;2023-04-03T07:58:51;5.50;99.90
3752;DHT22;50827;47.014;7.652;2023-04-03T08:01:18;5.60;99.90
3752;DHT22;50827;47.014;7.652;2023-04-03T08:03:45;5.70;99.90
3752;DHT22;50827;47.014;7.652;2023-04-03T08:06:11;5.90;99.90
3752;DHT22;50827;47.014;7.652;2023-04-03T08:08:43;5.70;99.90
3752;DHT22;50827;47.014;7.652;2023-04-03T08:11:10;5.80;99.90
3752;DHT22;50827;47.014;7.652;2023-04-03T08:13:38;5.80;99.90
3752;DHT22;50827;47.014;7.652;2023-04-03T08:16:15;5.80;99.90
3752;DHT22;50827;47.014;7.652;2023-04-03T08:18:43;5.90;99.90
3752;DHT22;50827;47.014;7.652;2023-04-03T08:21:11;5.90;99.90
3752;DHT22;50827;47.014;7.652;2023-04-03T08:23:39;5.80;99.90
3752;DHT22;50827;47.014;7.652;2023-04-03T08:26:18;5.80;99.90
3752;DHT22;50827;47.014;7.652;2023-04-03T08:28:45;6.00;99.90
3752;DHT22;50827;47.014;7.652;2023-04-03T08:31:14;5.90;99.90
3752;DHT22;50827;47.014;7.652;2023-04-03T08:33:42;5.80;99.90
3752;DHT22;50827;47.014;7.652;2023-04-03T08:36:18;5.80;99.90
3752;DHT22;50827;47.014;7.652;2023-04-03T08:38:46;6.00;99.90
3752;DHT22;50827;47.014;7.652;2023-04-03T08:41:19;5.90;99.90
3752;DHT22;50827;47.014;7.652;2023-04-03T08:46:19;5.90;99.90
3752;DHT22;50827;47.014;7.652;2023-04-03T08:48:50;5.90;99.90
3752;DHT22;50827;47.014;7.652;2023-04-03T08:51:19;6.00;99.90
3752;DHT22;50827;47.014;7.652;2023-04-03T08:54:00;6.00;99.90
3752;DHT22;50827;47.014;7.652;2023-04-03T08:56:31;5.80;99.90
3752;DHT22;50827;47.014;7.652;2023-04-03T08:59:12;5.70;99.90
3752;DHT22;50827;47.014;7.652;2023-04-03T09:01:41;5.70;99.90
3752;DHT22;50827;47.014;7.652;2023-04-03T09:04:16;5.70;99.90
3752;DHT22;50827;47.014;7.652;2023-04-03T09:06:51;5.70;99.90
3752;DHT22;50827;47.014;7.652;2023-04-03T09:22:57;6.20;99.90
3752;DHT22;50827;47.014;7.652;2023-04-03T09:25:33;6.20;99.90
3752;DHT22;50827;47.014;7.652;2023-04-03T09:28:01;6.10;99.90
3752;DHT22;50827;47.014;7.652;2023-04-03T09:30:29;6.00;99.90
3752;DHT22;50827;47.014;7.652;2023-04-03T09:32:57;5.90;99.90
3752;DHT22;50827;47.014;7.652;2023-04-03T09:35:27;5.90;99.90
3752;DHT22;50827;47.014;7.652;2023-04-03T09:40:40;6.20;99.90
3752;DHT22;50827;47.014;7.652;2023-04-03T09:43:29;6.30;99.90
3752;DHT22;50827;47.014;7.652;2023-04-03T09:46:16;6.30;99.90
3752;DHT22;50827;47.014;7.652;2023-04-03T09:49:12;6.20;99.90
3752;DHT22;50827;47.014;7.652;2023-04-03T09:51:39;6.20;99.90
3752;DHT22;50827;47.014;7.652;2023-04-03T09:54:31;6.40;99.90
3752;DHT22;50827;47.014;7.652;2023-04-03T09:57:09;6.30;99.90
3752;DHT22;50827;47.014;7.652;2023-04-03T09:59:42;6.00;99.90
3752;DHT22;50827;47.014;7.652;2023-04-03T10:02:35;5.90;99.90
3752;DHT22;50827;47.014;7.652;2023-04-03T10:05:05;6.00;99.90
3752;DHT22;50827;47.014;7.652;2023-04-03T10:07:51;5.90;99.90
3752;DHT22;50827;47.014;7.652;2023-04-03T10:10:29;5.90;99.90
3752;DHT22;50827;47.014;7.652;2023-04-03T10:13:15;6.00;99.90
3752;DHT22;50827;47.014;7.652;2023-04-03T10:15:51;6.10;99.90
3752;DHT22;50827;47.014;7.652;2023-04-03T10:20:51;6.00;99.90
3752;DHT22;50827;47.014;7.652;2023-04-03T10:28:41;6.00;99.90
3752;DHT22;50827;47.014;7.652;2023-04-03T10:39:57;6.10;99.90
3752;DHT22;50827;47.014;7.652;2023-04-03T10:42:35;6.20;99.90
3752;DHT22;50827;47.014;7.652;2023-04-03T10:45:42;6.40;99.90
3752;DHT22;50827;47.014;7.652;2023-04-03T10:51:09;6.40;99.90
3752;DHT22;50827;47.014;7.652;2023-04-03T10:53:52;6.40;99.90
3752;DHT22;50827;47.014;7.652;2023-04-03T10:56:40;6.10;99.90
3752;DHT22;50827;47.014;7.652;2023-04-03T10:59:31;5.90;99.90
3752;DHT22;50827;47.014;7.652;2023-04-03T11:02:07;6.00;99.90
3752;DHT22;50827;47.014;7.652;2023-04-03T11:04:40;6.00;99.90
3752;DHT22;50827;47.014;7.652;2023-04-03T11:10:25;6.10;99.90
3752;DHT22;50827;47.014;7.652;2023-04-03T11:13:03;6.20;99.90
3752;DHT22;50827;47.014;7.652;2023-04-03T11:15:33;6.10;99.90
3752;DHT22;50827;47.014;7.652;2023-04-03T11:18:08;6.10;99.90
3752;DHT22;50827;47.014;7.652;2023-04-03T11:20:42;6.10;99.90
3752;DHT22;50827;47.014;7.652;2023-04-03T11:23:25;6.20;99.90
3752;DHT22;50827;47.014;7.652;2023-04-03T11:26:13;6.10;99.90
3752;DHT22;50827;47.014;7.652;2023-04-03T11:28:41;6.20;99.90
3752;DHT22;50827;47.014;7.652;2023-04-03T11:33:45;6.40;99.90
3752;DHT22;50827;47.014;7.652;2023-04-03T11:38:53;6.60;99.90
3752;DHT22;50827;47.014;7.652;2023-04-03T11:41:27;6.50;99.90
3752;DHT22;50827;47.014;7.652;2023-04-03T11:44:06;6.60;99.90
3752;DHT22;50827;47.014;7.652;2023-04-03T11:46:57;6.80;99.90
3752;DHT22;50827;47.014;7.652;2023-04-03T11:50:27;6.90;99.90
3752;DHT22;50827;47.014;7.652;2023-04-03T12:16:43;6.70;99.90
3752;DHT22;50827;47.014;7.652;2023-04-03T12:29:50;6.60;99.90
3752;DHT22;50827;47.014;7.652;2023-04-03T12:32:35;6.70;99.90
3752;DHT22;50827;47.014;7.652;2023-04-03T12:46:24;6.90;99.90
3752;DHT22;50827;47.014;7.652;2023-04-03T12:48:59;6.80;99.90
3752;DHT22;50827;47.014;7.652;2023-04-03T12:51:37;7.00;99.90
3752;DHT22;50827;47.014;7.652;2023-04-03T12:56:39;7.10;99.90
3752;DHT22;50827;47.014;7.652;2023-04-03T12:59:24;7.20;99.90
3752;DHT22;50827;47.014;7.652;2023-04-03T13:01:59;7.20;99.90
3752;DHT22;50827;47.014;7.652;2023-04-03T13:04:31;7.30;99.90
3752;DHT22;50827;47.014;7.652;2023-04-03T13:06:58;7.20;99.90
3752;DHT22;50827;47.014;7.652;2023-04-03T13:09:26;7.10;99.90
3752;DHT22;50827;47.014;7.652;2023-04-03T13:12:01;7.00;99.90
3752;DHT22;50827;47.014;7.652;2023-04-03T13:14:29;7.00;99.90
3752;DHT22;50827;47.014;7.652;2023-04-03T13:17:19;6.90;99.90
3752;DHT22;50827;47.014;7.652;2023-04-03T13:19:45;6.80;99.90
3752;DHT22;50827;47.014;7.652;2023-04-03T13:22:45;7.10;99.90
3752;DHT22;50827;47.014;7.652;2023-04-03T13:25:15;6.90;99.90
3752;DHT22;50827;47.014;7.652;2023-04-03T13:27:43;6.90;99.90
3752;DHT22;50827;47.014;7.652;2023-04-03T13:32:48;7.00;99.90
3752;DHT22;50827;47.014;7.652;2023-04-03T13:35:39;7.00;99.90
3752;DHT22;50827;47.014;7.652;2023-04-03T13:38:28;7.10;99.90
3752;DHT22;50827;47.014;7.652;2023-04-03T13:41:03;7.10;99.90
3752;DHT22;50827;47.014;7.652;2023-04-03T13:43:36;7.30;99.90
3752;DHT22;50827;47.014;7.652;2023-04-03T13:48:42;7.30;99.90
3752;DHT22;50827;47.014;7.652;2023-04-03T13:53:43;7.40;99.90
3752;DHT22;50827;47.014;7.652;2023-04-03T13:59:19;7.40;99.90
3752;DHT22;50827;47.014;7.652;2023-04-03T14:02:33;7.40;99.90
3752;DHT22;50827;47.014;7.652;2023-04-03T14:04:47;7.40;99.90
3752;DHT22;50827;47.014;7.652;2023-04-03T14:07:16;7.30;99.90
3752;DHT22;50827;47.014;7.652;2023-04-03T14:09:43;7.20;99.90
3752;DHT22;50827;47.014;7.652;2023-04-03T14:12:34;7.20;99.90
3752;DHT22;50827;47.014;7.652;2023-04-03T14:15:15;7.20;99.90
3752;DHT22;50827;47.014;7.652;2023-04-03T14:17:43;7.20;99.90
3752;DHT22;50827;47.014;7.652;2023-04-03T14:20:15;7.00;99.90
3752;DHT22;50827;47.014;7.652;2023-04-03T14:22:43;7.00;99.90
3752;DHT22;50827;47.014;7.652;2023-04-03T14:25:10;7.10;99.90
3752;DHT22;50827;47.014;7.652;2023-04-03T14:27:40;7.20;99.90
3752;DHT22;50827;47.014;7.652;2023-04-03T14:30:17;7.00;99.90
3752;DHT22;50827;47.014;7.652;2023-04-03T14:32:45;7.00;99.90
3752;DHT22;50827;47.014;7.652;2023-04-03T14:35:13;7.00;99.90
3752;DHT22;50827;47.014;7.652;2023-04-03T14:37:41;7.00;99.90
3752;DHT22;50827;47.014;7.652;2023-04-03T14:40:11;7.00;99.90
3752;DHT22;50827;47.014;7.652;2023-04-03T14:42:39;6.90;99.90
3752;DHT22;50827;47.014;7.652;2023-04-03T14:45:09;7.00;99.90
3752;DHT22;50827;47.014;7.652;2023-04-03T14:47:46;7.00;99.90
3752;DHT22;50827;47.014;7.652;2023-04-03T14:50:17;7.10;99.90
3752;DHT22;50827;47.014;7.652;2023-04-03T14:52:45;7.20;99.90
3752;DHT22;50827;47.014;7.652;2023-04-03T14:55:15;7.20;99.90
3752;DHT22;50827;47.014;7.652;2023-04-03T14:57:42;7.20;99.90
3752;DHT22;50827;47.014;7.652;2023-04-03T15:00:15;7.10;99.90
3752;DHT22;50827;47.014;7.652;2023-04-03T15:02:42;7.10;99.90
3752;DHT22;50827;47.014;7.652;2023-04-03T15:05:11;7.00;99.90
3752;DHT22;50827;47.014;7.652;2023-04-03T15:07:43;7.10;99.90
3752;DHT22;50827;47.014;7.652;2023-04-03T15:10:28;7.00;99.90
3752;DHT22;50827;47.014;7.652;2023-04-03T15:12:56;6.90;99.90
3752;DHT22;50827;47.014;7.652;2023-04-03T15:15:24;7.00;99.90
3752;DHT22;50827;47.014;7.652;2023-04-03T15:17:53;7.10;99.90
3752;DHT22;50827;47.014;7.652;2023-04-03T15:20:23;7.10;99.90
3752;DHT22;50827;47.014;7.652;2023-04-03T15:22:50;7.10;99.90
3752;DHT22;50827;47.014;7.652;2023-04-03T15:25:17;7.00;99.90
3752;DHT22;50827;47.014;7.652;2023-04-03T15:27:44;7.00;99.90
3752;DHT22;50827;47.014;7.652;2023-04-03T15:30:15;7.00;99.90
3752;DHT22;50827;47.014;7.652;2023-04-03T15:32:42;7.00;99.90
3752;DHT22;50827;47.014;7.652;2023-04-03T15:35:09;7.00;99.90
3752;DHT22;50827;47.014;7.652;2023-04-03T15:37:36;7.00;99.90
3752;DHT22;50827;47.014;7.652;2023-04-03T15:40:04;7.00;99.90
3752;DHT22;50827;47.014;7.652;2023-04-03T15:42:32;7.10;99.90
3752;DHT22;50827;47.014;7.652;2023-04-03T15:44:59;7.10;99.90
3752;DHT22;50827;47.014;7.652;2023-04-03T15:47:26;7.10;99.90
3752;DHT22;50827;47.014;7.652;2023-04-03T15:49:54;7.20;99.90
3752;DHT22;50827;47.014;7.652;2023-04-03T15:52:21;7.20;99.90
3752;DHT22;50827;47.014;7.652;2023-04-03T15:54:48;7.20;99.90
3752;DHT22;50827;47.014;7.652;2023-04-03T15:57:15;7.10;99.90
3752;DHT22;50827;47.014;7.652;2023-04-03T15:59:42;7.00;99.90
3752;DHT22;50827;47.014;7.652;2023-04-03T16:02:10;7.10;99.90
3752;DHT22;50827;47.014;7.652;2023-04-03T16:04:39;7.10;99.90
3752;DHT22;50827;47.014;7.652;2023-04-03T16:07:06;7.00;99.90
3752;DHT22;50827;47.014;7.652;2023-04-03T16:09:35;7.10;99.90
3752;DHT22;50827;47.014;7.652;2023-04-03T16:12:02;7.10;99.90
3752;DHT22;50827;47.014;7.652;2023-04-03T16:14:29;7.10;99.90
3752;DHT22;50827;47.014;7.652;2023-04-03T16:16:58;7.20;99.90
3752;DHT22;50827;47.014;7.652;2023-04-03T16:19:26;7.20;99.90
3752;DHT22;50827;47.014;7.652;2023-04-03T16:21:54;7.10;99.90
3752;DHT22;50827;47.014;7.652;2023-04-03T16:24:21;7.10;99.90
3752;DHT22;50827;47.014;7.652;2023-04-03T16:26:49;7.10;99.90
3752;DHT22;50827;47.014;7.652;2023-04-03T16:29:15;7.00;99.90
3752;DHT22;50827;47.014;7.652;2023-04-03T16:31:42;6.80;99.90
3752;DHT22;50827;47.014;7.652;2023-04-03T16:34:09;6.80;99.90
3752;DHT22;50827;47.014;7.652;2023-04-03T16:36:36;6.60;99.90
3752;DHT22;50827;47.014;7.652;2023-04-03T16:39:04;6.50;99.90
3752;DHT22;50827;47.014;7.652;2023-04-03T16:41:31;6.50;99.90
3752;DHT22;50827;47.014;7.652;2023-04-03T16:43:58;6.50;99.90
3752;DHT22;50827;47.014;7.652;2023-04-03T16:46:25;6.50;99.90
3752;DHT22;50827;47.014;7.652;2023-04-03T16:48:51;6.60;99.90
3752;DHT22;50827;47.014;7.652;2023-04-03T16:51:18;6.60;99.90
3752;DHT22;50827;47.014;7.652;2023-04-03T16:53:45;6.70;99.90
3752;DHT22;50827;47.014;7.652;2023-04-03T16:56:11;6.70;99.90
3752;DHT22;50827;47.014;7.652;2023-04-03T16:58:38;6.60;99.90
3752;DHT22;50827;47.014;7.652;2023-04-03T17:01:13;6.60;99.90
3752;DHT22;50827;47.014;7.652;2023-04-03T17:03:40;6.60;99.90
3752;DHT22;50827;47.014;7.652;2023-04-03T17:06:07;6.50;99.90
3752;DHT22;50827;47.014;7.652;2023-04-03T17:08:44;6.50;99.90
3752;DHT22;50827;47.014;7.652;2023-04-03T17:11:11;6.60;99.90
3752;DHT22;50827;47.014;7.652;2023-04-03T17:13:38;6.50;99.90
3752;DHT22;50827;47.014;7.652;2023-04-03T17:16:08;6.40;99.90
3752;DHT22;50827;47.014;7.652;2023-04-03T17:18:36;6.40;99.90
3752;DHT22;50827;47.014;7.652;2023-04-03T17:21:03;6.40;99.90
3752;DHT22;50827;47.014;7.652;2023-04-03T17:23:31;6.30;99.90
3752;DHT22;50827;47.014;7.652;2023-04-03T17:26:02;6.40;99.90
3752;DHT22;50827;47.014;7.652;2023-04-03T17:28:29;6.40;99.90
3752;DHT22;50827;47.014;7.652;2023-04-03T17:30:58;6.30;99.90
3752;DHT22;50827;47.014;7.652;2023-04-03T17:33:26;6.20;99.90
3752;DHT22;50827;47.014;7.652;2023-04-03T17:35:56;6.20;99.90
3752;DHT22;50827;47.014;7.652;2023-04-03T17:38:23;6.30;99.90
3752;DHT22;50827;47.014;7.652;2023-04-03T17:40:50;6.20;99.90
3752;DHT22;50827;47.014;7.652;2023-04-03T17:43:17;6.10;99.90
3752;DHT22;50827;47.014;7.652;2023-04-03T17:45:43;6.20;99.90
3752;DHT22;50827;47.014;7.652;2023-04-03T17:48:10;6.10;99.90
3752;DHT22;50827;47.014;7.652;2023-04-03T17:50:37;6.20;99.90
3752;DHT22;50827;47.014;7.652;2023-04-03T17:53:04;6.20;99.90
3752;DHT22;50827;47.014;7.652;2023-04-03T17:55:30;6.20;99.90
3752;DHT22;50827;47.014;7.652;2023-04-03T17:57:57;6.20;99.90
3752;DHT22;50827;47.014;7.652;2023-04-03T18:00:24;6.20;99.90
3752;DHT22;50827;47.014;7.652;2023-04-03T18:02:52;6.20;99.90
3752;DHT22;50827;47.014;7.652;2023-04-03T18:05:19;6.20;99.90
3752;DHT22;50827;47.014;7.652;2023-04-03T18:07:46;6.10;99.90
3752;DHT22;50827;47.014;7.652;2023-04-03T18:10:13;6.10;99.90
3752;DHT22;50827;47.014;7.652;2023-04-03T18:12:40;6.10;99.90
3752;DHT22;50827;47.014;7.652;2023-04-03T18:15:08;6.20;99.90